• Join FlightAware (Why Join?)
  • Login
  • US Flag 
08:16PM EDT


 

Airport Tracker/Info


-or-


 

Live Flight TrackerFlight Track Log ✈ NKS439 ✈ 19-Oct-2013 ✈ KFLL - MNMG / MGA

Flight Track Log - Related Links

Times and Time Zones

All times are in EDT time to prevent confusion due to time zone crossing. See the NKS439 flight status page for this flight to view local times or setup timezone preferences in your user account.

Time Position Orientation Groundspeed Altitude Reporting Facility
EDT Latitude Longitude Course Direction KTS MPH feet Rate Location/Type
11:51PM 26.0770 -80.1340 90° East 164 189 600  Level FlightAware
11:51PM 26.0790 -80.1080 85° East 168 193 1,700 1,680 Climbing FlightAware
11:52PM 26.0810 -80.0940 81° East 195 224 1,900 840 Climbing FlightAware
11:52PM 26.0830 -80.0740 84° East 222 255 2,200 1,020 Climbing FlightAware
11:52PM 26.0860 -80.0470 83° East 259 298 2,600 1,860 Climbing FlightAware
11:53PM 26.0890 -80.0200 83° East 272 313 3,500 3,120 Climbing FlightAware
11:53PM 26.0850 -79.9720 95° East 271 312 5,500 3,300 Climbing FlightAware
11:53PM 26.0770 -79.9610 129° Southeast 269 310 6,000 2,580 Climbing FlightAware
11:54PM 26.0710 -79.9570 149° Southeast 275 316 6,200 3,000 Climbing FlightAware
11:54PM 26.0660 -79.9540 152° Southeast 269 310 6,500 3,000 Climbing FlightAware
11:54PM 26.0530 -79.9500 165° South 281 323 6,900 2,580 Climbing FlightAware
11:54PM 26.0280 -79.9460 172° South 280 322 7,800 2,700 Climbing FlightAware
11:54PM 26.0080 -79.9430 172° South 290 334 8,500 2,880 Climbing FlightAware
11:55PM 25.9800 -79.9400 174° South 291 335 9,500 2,700 Climbing FlightAware
11:55PM 25.9510 -79.9470 192° South 299 344 10,400 1,620 Climbing FlightAware
11:56PM 25.9030 -79.9750 208° Southwest 335 386 11,100 1,380 Climbing FlightAware
11:56PM 25.8520 -80.0050 208° Southwest 355 409 12,100 1,860 Climbing FlightAware
11:57PM 25.8000 -80.0360 208° Southwest 363 418 13,300 1,860 Climbing FlightAware
11:57PM 25.7470 -80.0670 208° Southwest 376 433 14,300 1,920 Climbing FlightAware
11:58PM 25.6880 -80.0900 199° South 378 435 15,600 1,860 Climbing FlightAware
11:59PM 25.6340 -80.1090 198° South 385 443 16,500 1,680 Climbing FlightAware
11:59PM 25.5730 -80.1320 199° South 389 448 17,600 1,980 Climbing FlightAware
12:00AM 25.5090 -80.1550 198° South 389 448 18,900 1,800 Climbing FlightAware
12:00AM 25.4530 -80.1750 198° South 396 456 19,700 1,560 Climbing FlightAware
12:01AM 25.3880 -80.1990 198° South 390 449 20,800 1,440 Climbing FlightAware
12:02AM 25.3180 -80.2240 198° South 408 470 21,600 1,080 Climbing FlightAware
12:02AM 25.2550 -80.2470 198° South 408 470 22,200 1,260 Climbing FlightAware
12:03AM 25.1810 -80.2740 198° South 410 472 23,200 1,320 Climbing FlightAware
12:03AM 25.1140 -80.2980 198° South 423 487 23,900 1,140 Climbing FlightAware
12:04AM 25.0480 -80.3220 198° South 427 491 24,600 1,140 Climbing FlightAware
12:05AM 24.9720 -80.3500 198° South 423 487 25,400 1,200 Climbing FlightAware
12:05AM 24.9050 -80.3740 198° South 426 490 26,100 900 Climbing FlightAware
12:06AM 24.8350 -80.3990 198° South 443 510 26,500 840 Climbing FlightAware
12:07AM 24.7680 -80.4230 198° South 439 505 27,100 900 Climbing FlightAware
12:07AM 24.6970 -80.4480 198° South 443 510 27,600 840 Climbing FlightAware
12:08AM 24.6170 -80.4770 198° South 455 524 28,200 840 Climbing FlightAware
12:08AM 24.5470 -80.5020 198° South 459 528 28,700 840 Climbing FlightAware
12:09AM 24.4740 -80.5290 199° South 458 527 29,200 720 Climbing FlightAware
12:10AM 24.4100 -80.5510 197° South 460 529 29,600 960 Climbing FlightAware
12:10AM 24.3100 -80.5890 199° South 469 540 30,500 1,020 Climbing FlightAware
12:11AM 24.2600 -80.6120 203° Southwest 460 529 31,000 1,080 Climbing FlightAware
12:11AM 24.1700 -80.6540 203° Southwest 458 527 31,800 1,260 Climbing FlightAware
12:12AM 24.0900 -80.6890 202° Southwest 453 521 32,600 1,020 Climbing FlightAware
12:13AM 24.0200 -80.7200 202° Southwest 457 526 33,100 840 Climbing FlightAware
12:13AM 23.9400 -80.7560 202° Southwest 465 535 33,700 840 Climbing FlightAware
12:14AM 23.8790 -80.7830 202° Southwest 466 536 34,100 780 Climbing FlightAware
12:14AM 23.8120 -80.8130 202° Southwest 467 537 34,600 720 Climbing FlightAware
12:15AM 23.7380 -80.8460 202° Southwest 456 525 35,000 300 Climbing FlightAware
12:16AM 23.6680 -80.8770 202° Southwest 455 524 35,000  Level FlightAware
12:16AM 23.6090 -80.9030 202° Southwest 466 536 35,000  Level FlightAware
12:17AM 23.5190 -80.9430 202° Southwest 465 535 35,000  Level FlightAware
12:18AM 23.4240 -80.9840 202° Southwest 457 526 35,000  Level FlightAware
12:18AM 23.3640 -81.0110 202° Southwest 457 526 35,000  Level FlightAware
12:19AM 23.2690 -81.0520 202° Southwest 452 520 35,000  Level FlightAware
12:20AM 23.2070 -81.0800 203° Southwest 452 520 35,000  Level FlightAware
12:20AM 23.1470 -81.1060 202° Southwest 452 520 35,000  Level FlightAware
12:23AM 22.8932 -81.1740 194° South  Level FlightAware Approximate
12:23AM 22.8230 -81.2480 194° South 35,000  Level FlightAware
12:25AM 22.6218 -81.2925 192° South  Level FlightAware Approximate
12:26AM 22.5080 -81.3177 192° South  Level FlightAware Approximate
12:26AM 22.4180 -81.4240 192° South 35,000  Level FlightAware
12:27AM 22.3310 -81.4620 202° Southwest 469 540 35,000  Level FlightAware
12:27AM 22.2680 -81.4900 202° Southwest 469 540 35,000  Level FlightAware
12:28AM 22.2060 -81.5170 202° Southwest 469 540 35,000  Level FlightAware
12:29AM 22.1450 -81.5440 202° Southwest 469 540 35,000  Level FlightAware
12:29AM 22.0830 -81.5700 201° Southwest 469 540 35,000  Level FlightAware
12:30AM 22.0220 -81.5970 202° Southwest 469 540 35,000  Level FlightAware
12:30AM 21.9600 -81.6240 202° Southwest 469 540 35,000  Level FlightAware
12:31AM 21.8980 -81.6510 202° Southwest 469 540 35,000  Level FlightAware
12:32AM 21.8370 -81.6780 202° Southwest 469 540 35,000  Level FlightAware
12:32AM 21.7750 -81.7040 201° Southwest 469 540 35,000  Level FlightAware
12:33AM 21.7120 -81.7320 202° Southwest 469 540 35,000  Level FlightAware
12:33AM 21.6510 -81.7590 202° Southwest 469 540 35,000  Level FlightAware
12:34AM 21.5870 -81.7860 201° Southwest 469 540 35,000  Level FlightAware
12:35AM 21.5260 -81.8130 202° Southwest 469 540 35,000  Level FlightAware
12:35AM 21.4640 -81.8400 202° Southwest 469 540 35,000  Level FlightAware
12:36AM 21.4030 -81.8660 202° Southwest 469 540 35,000  Level FlightAware
12:39AM 21.1266 -82.0019 205° Southwest  Level Estimated
12:40AM 21.0209 -82.0537 205° Southwest  Level Estimated
12:41AM 20.9152 -82.1054 205° Southwest  Level Estimated
12:42AM 20.8095 -82.1570 205° Southwest  Level Estimated
12:43AM 20.7038 -82.2086 205° Southwest  Level Estimated
12:44AM 20.5980 -82.2601 205° Southwest  Level Estimated
12:45AM 20.4923 -82.3115 204° Southwest  Level Estimated
12:46AM 20.3865 -82.3629 204° Southwest  Level Estimated
12:47AM 20.2807 -82.4142 204° Southwest  Level Estimated
12:48AM 20.1749 -82.4654 204° Southwest  Level Estimated
12:49AM 20.0691 -82.5165 204° Southwest  Level Estimated
12:50AM 19.9632 -82.5676 204° Southwest  Level Estimated
12:51AM 19.8574 -82.6186 204° Southwest  Level Estimated
12:52AM 19.7515 -82.6696 204° Southwest  Level Estimated
12:53AM 19.6457 -82.7205 204° Southwest  Level Estimated
12:54AM 19.5398 -82.7713 204° Southwest  Level Estimated
12:55AM 19.4339 -82.8220 204° Southwest  Level Estimated
12:56AM 19.3280 -82.8727 204° Southwest  Level Estimated
12:57AM 19.2220 -82.9233 204° Southwest  Level Estimated
12:58AM 19.1161 -82.9738 204° Southwest  Level Estimated
12:59AM 19.0101 -83.0243 204° Southwest  Level Estimated
01:00AM 18.9042 -83.0748 204° Southwest  Level Estimated
01:01AM 18.7982 -83.1251 204° Southwest  Level Estimated
01:02AM 18.6922 -83.1754 204° Southwest  Level Estimated
01:03AM 18.5862 -83.2256 204° Southwest  Level Estimated
01:04AM 18.4802 -83.2758 204° Southwest  Level Estimated
01:05AM 18.3741 -83.3259 204° Southwest  Level Estimated
01:06AM 18.2681 -83.3759 204° Southwest  Level Estimated
01:07AM 18.1620 -83.4259 204° Southwest  Level Estimated
01:08AM 18.0559 -83.4758 204° Southwest  Level Estimated
01:09AM 17.9498 -83.5257 204° Southwest  Level Estimated
01:10AM 17.8437 -83.5755 204° Southwest  Level Estimated
01:11AM 17.7376 -83.6252 204° Southwest  Level Estimated
01:12AM 17.6315 -83.6749 204° Southwest  Level Estimated
01:13AM 17.5253 -83.7245 204° Southwest  Level Estimated
01:14AM 17.4192 -83.7741 204° Southwest  Level Estimated
01:15AM 17.3130 -83.8236 204° Southwest  Level Estimated
01:16AM 17.2069 -83.8730 204° Southwest  Level Estimated
01:17AM 17.1007 -83.9224 204° Southwest  Level Estimated
01:18AM 16.9945 -83.9718 204° Southwest  Level Estimated
01:19AM 16.8883 -84.0210 204° Southwest  Level Estimated
01:20AM 16.7820 -84.0703 204° Southwest  Level Estimated
01:21AM 16.6758 -84.1194 204° Southwest  Level Estimated
01:22AM 16.5695 -84.1685 204° Southwest  Level Estimated
01:23AM 16.4633 -84.2176 204° Southwest  Level Estimated
01:24AM 16.3570 -84.2666 204° Southwest  Level Estimated
01:25AM 16.2507 -84.3156 204° Southwest  Level Estimated
01:26AM 16.1444 -84.3645 204° Southwest  Level Estimated
01:27AM 16.0381 -84.4133 204° Southwest  Level Estimated
01:28AM 15.9318 -84.4621 204° Southwest  Level Estimated
01:29AM 15.8255 -84.5109 204° Southwest  Level Estimated
01:30AM 15.7191 -84.5595 204° Southwest  Level Estimated
01:31AM 15.6128 -84.6082 204° Southwest  Level Estimated
01:32AM 15.5064 -84.6568 204° Southwest  Level Estimated
01:33AM 15.4001 -84.7053 204° Southwest  Level Estimated
01:34AM 15.2937 -84.7538 204° Southwest  Level Estimated
01:35AM 15.1873 -84.8023 204° Southwest  Level Estimated
01:36AM 15.0809 -84.8506 204° Southwest  Level Estimated
01:37AM 14.9745 -84.8990 204° Southwest  Level Estimated
01:38AM 14.8681 -84.9473 204° Southwest  Level Estimated
01:39AM 14.7616 -84.9956 204° Southwest  Level Estimated
01:40AM 14.6552 -85.0437 204° Southwest  Level Estimated
01:41AM 14.5487 -85.0919 204° Southwest  Level Estimated
01:42AM 14.4423 -85.1400 204° Southwest  Level Estimated
01:43AM 14.3358 -85.1881 204° Southwest  Level Estimated
01:44AM 14.2293 -85.2361 204° Southwest  Level Estimated
01:45AM 14.1229 -85.2841 204° Southwest  Level Estimated
01:46AM 14.0163 -85.3320 204° Southwest  Level Estimated
01:47AM 13.9098 -85.3799 204° Southwest  Level Estimated
01:48AM 13.8033 -85.4277 204° Southwest  Level Estimated
01:49AM 13.6968 -85.4755 204° Southwest  Level Estimated
01:50AM 13.5903 -85.5233 204° Southwest  Level Estimated
01:51AM 13.4837 -85.5710 204° Southwest  Level Estimated
01:52AM 13.3772 -85.6187 204° Southwest  Level Estimated
01:53AM 13.2706 -85.6663 204° Southwest  Level Estimated
01:54AM 13.1640 -85.7139 203° Southwest  Level Estimated
01:55AM 13.0575 -85.7614 203° Southwest  Level Estimated
01:56AM 12.9509 -85.8089 203° Southwest  Level Estimated
01:57AM 12.8443 -85.8564 203° Southwest  Level Estimated
01:58AM 12.7376 -85.9038 203° Southwest  Level Estimated
01:59AM 12.6310 -85.9512 203° Southwest  Level Estimated
02:00AM 12.5244 -85.9985 203° Southwest  Level Estimated
02:01AM 12.4178 -86.0458 203° Southwest  Level Estimated
02:02AM 12.3111 -86.0931 203° Southwest  Level Estimated
02:03AM 12.2045 -86.1403 203° Southwest  Level Estimated
02:04AM 12.1415 -86.1682 203° Southwest  Level Estimated
02:05AM 12.1415 -86.1682 26° Northeast  Level Estimated
02:06AM 12.1415 -86.1682 26° Northeast  Level Estimated
02:07AM 12.1415 -86.1682 26° Northeast  Level Estimated
02:08AM 12.1415 -86.1682 26° Northeast  Level Estimated
02:09AM 12.1415 -86.1682 26° Northeast  Level Estimated
02:10AM 12.1415 -86.1682 26° Northeast  Level Estimated
02:11AM 12.1415 -86.1682 26° Northeast  Level Estimated
02:12AM 12.1415 -86.1682 26° Northeast  Level Estimated
02:13AM 12.1415 -86.1682 26° Northeast  Level Estimated
02:14AM 12.1415 -86.1682 26° Northeast  Level Estimated
02:15AM 12.1415 -86.1682 26° Northeast  Level Estimated
02:16AM 12.1415 -86.1682 26° Northeast  Level Estimated
02:17AM 12.1415 -86.1682 26° Northeast  Level Estimated
02:18AM 12.1415 -86.1682 26° Northeast  Level Estimated